sensor_id;sensor_type;location;lat;lon;timestamp;P1;durP1;ratioP1;P2;durP2;ratioP2
18857;SDS011;9558;50.178;8.370;2023-11-21T00:01:05;3.25;;;1.20;;
18857;SDS011;9558;50.178;8.370;2023-11-21T00:03:53;2.53;;;1.10;;
18857;SDS011;9558;50.178;8.370;2023-11-21T00:06:41;2.00;;;1.25;;
18857;SDS011;9558;50.178;8.370;2023-11-21T00:12:15;1.80;;;0.80;;
18857;SDS011;9558;50.178;8.370;2023-11-21T00:15:03;5.68;;;1.30;;
18857;SDS011;9558;50.178;8.370;2023-11-21T00:17:54;1.05;;;0.90;;
18857;SDS011;9558;50.178;8.370;2023-11-21T00:23:28;0.57;;;0.57;;
18857;SDS011;9558;50.178;8.370;2023-11-21T00:29:01;3.53;;;0.88;;
18857;SDS011;9558;50.178;8.370;2023-11-21T00:31:49;3.63;;;0.85;;
18857;SDS011;9558;50.178;8.370;2023-11-21T00:34:36;2.25;;;1.05;;
18857;SDS011;9558;50.178;8.370;2023-11-21T00:40:09;0.68;;;0.60;;
18857;SDS011;9558;50.178;8.370;2023-11-21T00:42:58;2.28;;;0.35;;
18857;SDS011;9558;50.178;8.370;2023-11-21T00:45:44;1.20;;;0.80;;
18857;SDS011;9558;50.178;8.370;2023-11-21T00:48:35;4.93;;;0.47;;
18857;SDS011;9558;50.178;8.370;2023-11-21T00:51:22;3.10;;;0.80;;
18857;SDS011;9558;50.178;8.370;2023-11-21T00:54:08;3.17;;;1.00;;
18857;SDS011;9558;50.178;8.370;2023-11-21T00:56:55;1.52;;;0.80;;
18857;SDS011;9558;50.178;8.370;2023-11-21T00:59:42;0.88;;;0.50;;
18857;SDS011;9558;50.178;8.370;2023-11-21T01:02:29;0.63;;;0.60;;
18857;SDS011;9558;50.178;8.370;2023-11-21T01:08:05;0.65;;;0.63;;
18857;SDS011;9558;50.178;8.370;2023-11-21T01:10:52;0.60;;;0.50;;
18857;SDS011;9558;50.178;8.370;2023-11-21T01:13:39;2.35;;;0.77;;
18857;SDS011;9558;50.178;8.370;2023-11-21T01:16:27;2.58;;;1.30;;
18857;SDS011;9558;50.178;8.370;2023-11-21T01:22:01;8.00;;;1.60;;
18857;SDS011;9558;50.178;8.370;2023-11-21T01:24:49;3.05;;;1.38;;
18857;SDS011;9558;50.178;8.370;2023-11-21T01:30:22;2.92;;;1.48;;
18857;SDS011;9558;50.178;8.370;2023-11-21T01:33:09;4.00;;;1.88;;
18857;SDS011;9558;50.178;8.370;2023-11-21T01:35:56;4.30;;;1.30;;
18857;SDS011;9558;50.178;8.370;2023-11-21T01:38:44;5.78;;;1.40;;
18857;SDS011;9558;50.178;8.370;2023-11-21T01:41:31;2.35;;;1.30;;
18857;SDS011;9558;50.178;8.370;2023-11-21T01:47:05;3.45;;;0.90;;
18857;SDS011;9558;50.178;8.370;2023-11-21T01:49:52;1.40;;;1.08;;
18857;SDS011;9558;50.178;8.370;2023-11-21T01:52:39;2.40;;;1.27;;
18857;SDS011;9558;50.178;8.370;2023-11-21T01:55:27;2.67;;;1.00;;
18857;SDS011;9558;50.178;8.370;2023-11-21T01:58:15;4.13;;;1.42;;
18857;SDS011;9558;50.178;8.370;2023-11-21T02:01:02;1.90;;;1.38;;
18857;SDS011;9558;50.178;8.370;2023-11-21T02:03:49;3.17;;;1.95;;
18857;SDS011;9558;50.178;8.370;2023-11-21T02:09:24;1.95;;;1.08;;
18857;SDS011;9558;50.178;8.370;2023-11-21T02:12:13;0.95;;;0.45;;
18857;SDS011;9558;50.178;8.370;2023-11-21T02:15:02;1.33;;;0.65;;
18857;SDS011;9558;50.178;8.370;2023-11-21T02:17:50;3.35;;;0.68;;
18857;SDS011;9558;50.178;8.370;2023-11-21T02:20:37;2.22;;;0.40;;
18857;SDS011;9558;50.178;8.370;2023-11-21T02:23:28;0.60;;;0.30;;
18857;SDS011;9558;50.178;8.370;2023-11-21T02:26:15;0.28;;;0.20;;
18857;SDS011;9558;50.178;8.370;2023-11-21T02:29:02;0.85;;;0.55;;
18857;SDS011;9558;50.178;8.370;2023-11-21T02:31:51;0.63;;;0.40;;
18857;SDS011;9558;50.178;8.370;2023-11-21T02:34:39;0.22;;;0.22;;
18857;SDS011;9558;50.178;8.370;2023-11-21T02:40:14;1.50;;;0.80;;
18857;SDS011;9558;50.178;8.370;2023-11-21T02:43:03;11.30;;;0.88;;
18857;SDS011;9558;50.178;8.370;2023-11-21T02:45:51;0.50;;;0.32;;
18857;SDS011;9558;50.178;8.370;2023-11-21T02:51:24;0.30;;;0.30;;
18857;SDS011;9558;50.178;8.370;2023-11-21T02:56:59;1.88;;;0.35;;
18857;SDS011;9558;50.178;8.370;2023-11-21T02:59:45;1.00;;;0.50;;
18857;SDS011;9558;50.178;8.370;2023-11-21T03:05:19;0.60;;;0.50;;
18857;SDS011;9558;50.178;8.370;2023-11-21T03:08:05;1.13;;;0.70;;
18857;SDS011;9558;50.178;8.370;2023-11-21T03:13:40;0.32;;;0.30;;
18857;SDS011;9558;50.178;8.370;2023-11-21T03:16:27;1.10;;;0.80;;
18857;SDS011;9558;50.178;8.370;2023-11-21T03:19:14;0.95;;;0.50;;
18857;SDS011;9558;50.178;8.370;2023-11-21T03:22:01;1.77;;;0.82;;
18857;SDS011;9558;50.178;8.370;2023-11-21T03:24:49;0.90;;;0.88;;
18857;SDS011;9558;50.178;8.370;2023-11-21T03:30:25;1.67;;;0.70;;
18857;SDS011;9558;50.178;8.370;2023-11-21T03:33:12;2.78;;;1.33;;
18857;SDS011;9558;50.178;8.370;2023-11-21T03:38:45;3.90;;;1.38;;
18857;SDS011;9558;50.178;8.370;2023-11-21T03:44:19;2.67;;;0.88;;
18857;SDS011;9558;50.178;8.370;2023-11-21T03:47:07;4.60;;;1.25;;
18857;SDS011;9558;50.178;8.370;2023-11-21T03:49:54;2.30;;;1.25;;
18857;SDS011;9558;50.178;8.370;2023-11-21T03:55:27;0.88;;;0.57;;
18857;SDS011;9558;50.178;8.370;2023-11-21T03:58:16;6.70;;;0.90;;
18857;SDS011;9558;50.178;8.370;2023-11-21T04:03:51;2.30;;;1.13;;
18857;SDS011;9558;50.178;8.370;2023-11-21T04:06:38;0.68;;;0.68;;
18857;SDS011;9558;50.178;8.370;2023-11-21T04:12:11;1.52;;;0.73;;
18857;SDS011;9558;50.178;8.370;2023-11-21T04:17:44;0.77;;;0.75;;
18857;SDS011;9558;50.178;8.370;2023-11-21T04:20:32;2.25;;;1.33;;
18857;SDS011;9558;50.178;8.370;2023-11-21T04:23:19;1.65;;;1.30;;
18857;SDS011;9558;50.178;8.370;2023-11-21T04:28:52;9.00;;;1.70;;
18857;SDS011;9558;50.178;8.370;2023-11-21T04:34:26;3.38;;;1.40;;
18857;SDS011;9558;50.178;8.370;2023-11-21T04:37:16;3.63;;;1.20;;
18857;SDS011;9558;50.178;8.370;2023-11-21T04:40:03;2.40;;;1.33;;
18857;SDS011;9558;50.178;8.370;2023-11-21T04:42:52;3.42;;;1.40;;
18857;SDS011;9558;50.178;8.370;2023-11-21T04:48:26;2.92;;;1.40;;
18857;SDS011;9558;50.178;8.370;2023-11-21T04:54:01;1.38;;;0.80;;
18857;SDS011;9558;50.178;8.370;2023-11-21T04:56:48;5.45;;;1.55;;
18857;SDS011;9558;50.178;8.370;2023-11-21T05:02:21;1.77;;;0.93;;
18857;SDS011;9558;50.178;8.370;2023-11-21T05:05:08;2.60;;;1.10;;
18857;SDS011;9558;50.178;8.370;2023-11-21T05:07:55;2.30;;;1.30;;
18857;SDS011;9558;50.178;8.370;2023-11-21T05:13:30;4.07;;;1.17;;
18857;SDS011;9558;50.178;8.370;2023-11-21T05:16:18;2.53;;;1.30;;
18857;SDS011;9558;50.178;8.370;2023-11-21T05:19:05;2.03;;;1.05;;
18857;SDS011;9558;50.178;8.370;2023-11-21T05:24:39;2.63;;;1.58;;
18857;SDS011;9558;50.178;8.370;2023-11-21T05:30:13;2.70;;;1.35;;
18857;SDS011;9558;50.178;8.370;2023-11-21T05:33:00;2.35;;;1.38;;
18857;SDS011;9558;50.178;8.370;2023-11-21T05:35:47;2.35;;;1.40;;
18857;SDS011;9558;50.178;8.370;2023-11-21T05:38:35;2.75;;;1.45;;
18857;SDS011;9558;50.178;8.370;2023-11-21T05:41:21;2.15;;;1.60;;
18857;SDS011;9558;50.178;8.370;2023-11-21T05:44:10;4.68;;;2.10;;
18857;SDS011;9558;50.178;8.370;2023-11-21T05:46:57;3.00;;;1.70;;
18857;SDS011;9558;50.178;8.370;2023-11-21T05:52:35;2.85;;;1.65;;
18857;SDS011;9558;50.178;8.370;2023-11-21T05:55:22;4.88;;;1.63;;
18857;SDS011;9558;50.178;8.370;2023-11-21T05:58:11;4.75;;;2.17;;
18857;SDS011;9558;50.178;8.370;2023-11-21T06:01:00;7.03;;;2.50;;
18857;SDS011;9558;50.178;8.370;2023-11-21T06:03:47;4.43;;;1.92;;
18857;SDS011;9558;50.178;8.370;2023-11-21T06:06:34;4.53;;;2.03;;
18857;SDS011;9558;50.178;8.370;2023-11-21T06:12:08;4.35;;;2.45;;
18857;SDS011;9558;50.178;8.370;2023-11-21T06:17:43;4.97;;;2.20;;
18857;SDS011;9558;50.178;8.370;2023-11-21T06:20:30;4.13;;;2.80;;
18857;SDS011;9558;50.178;8.370;2023-11-21T06:26:04;4.05;;;2.05;;
18857;SDS011;9558;50.178;8.370;2023-11-21T06:28:51;5.72;;;2.78;;
18857;SDS011;9558;50.178;8.370;2023-11-21T06:31:39;14.88;;;3.20;;
18857;SDS011;9558;50.178;8.370;2023-11-21T06:34:27;10.13;;;3.90;;
18857;SDS011;9558;50.178;8.370;2023-11-21T06:37:15;6.75;;;3.10;;
18857;SDS011;9558;50.178;8.370;2023-11-21T06:40:03;6.22;;;3.13;;
18857;SDS011;9558;50.178;8.370;2023-11-21T06:42:50;8.13;;;3.80;;
18857;SDS011;9558;50.178;8.370;2023-11-21T06:45:37;5.53;;;3.50;;
18857;SDS011;9558;50.178;8.370;2023-11-21T06:48:23;10.23;;;4.75;;
18857;SDS011;9558;50.178;8.370;2023-11-21T06:53:58;13.98;;;3.72;;
18857;SDS011;9558;50.178;8.370;2023-11-21T06:59:33;6.97;;;3.60;;
18857;SDS011;9558;50.178;8.370;2023-11-21T07:02:20;8.55;;;3.03;;
18857;SDS011;9558;50.178;8.370;2023-11-21T07:07:55;8.27;;;3.42;;
18857;SDS011;9558;50.178;8.370;2023-11-21T07:10:42;7.50;;;3.53;;
18857;SDS011;9558;50.178;8.370;2023-11-21T07:16:15;8.52;;;3.33;;
18857;SDS011;9558;50.178;8.370;2023-11-21T07:19:04;6.30;;;3.10;;
18857;SDS011;9558;50.178;8.370;2023-11-21T07:21:51;6.82;;;4.03;;
18857;SDS011;9558;50.178;8.370;2023-11-21T07:24:39;7.32;;;2.97;;
18857;SDS011;9558;50.178;8.370;2023-11-21T07:27:26;7.10;;;3.63;;
18857;SDS011;9558;50.178;8.370;2023-11-21T07:30:13;7.18;;;3.20;;
18857;SDS011;9558;50.178;8.370;2023-11-21T07:33:00;8.68;;;3.63;;
18857;SDS011;9558;50.178;8.370;2023-11-21T07:35:48;4.22;;;2.42;;
18857;SDS011;9558;50.178;8.370;2023-11-21T07:41:23;4.00;;;2.08;;
18857;SDS011;9558;50.178;8.370;2023-11-21T07:44:10;7.03;;;2.97;;
18857;SDS011;9558;50.178;8.370;2023-11-21T07:46:57;5.75;;;3.15;;
18857;SDS011;9558;50.178;8.370;2023-11-21T07:52:32;5.03;;;2.50;;
18857;SDS011;9558;50.178;8.370;2023-11-21T07:55:19;6.40;;;2.28;;
18857;SDS011;9558;50.178;8.370;2023-11-21T08:00:53;2.97;;;2.00;;
18857;SDS011;9558;50.178;8.370;2023-11-21T08:03:40;5.03;;;2.53;;
18857;SDS011;9558;50.178;8.370;2023-11-21T08:09:14;8.00;;;2.72;;
18857;SDS011;9558;50.178;8.370;2023-11-21T08:12:03;5.78;;;3.00;;
18857;SDS011;9558;50.178;8.370;2023-11-21T08:14:51;4.15;;;2.28;;
18857;SDS011;9558;50.178;8.370;2023-11-21T08:17:38;5.43;;;2.40;;
18857;SDS011;9558;50.178;8.370;2023-11-21T08:20:25;7.80;;;2.50;;
18857;SDS011;9558;50.178;8.370;2023-11-21T08:23:11;8.40;;;3.03;;
18857;SDS011;9558;50.178;8.370;2023-11-21T08:26:00;4.30;;;2.55;;
18857;SDS011;9558;50.178;8.370;2023-11-21T08:28:48;4.13;;;2.15;;
18857;SDS011;9558;50.178;8.370;2023-11-21T08:31:38;3.50;;;2.10;;
18857;SDS011;9558;50.178;8.370;2023-11-21T08:34:26;5.55;;;2.53;;
18857;SDS011;9558;50.178;8.370;2023-11-21T08:37:14;4.45;;;2.78;;
18857;SDS011;9558;50.178;8.370;2023-11-21T08:40:01;4.97;;;2.75;;
18857;SDS011;9558;50.178;8.370;2023-11-21T08:42:49;4.97;;;2.53;;
18857;SDS011;9558;50.178;8.370;2023-11-21T08:45:37;6.47;;;2.60;;
18857;SDS011;9558;50.178;8.370;2023-11-21T08:51:13;6.25;;;2.20;;
18857;SDS011;9558;50.178;8.370;2023-11-21T08:54:01;5.20;;;2.40;;
18857;SDS011;9558;50.178;8.370;2023-11-21T08:56:50;4.70;;;2.42;;
18857;SDS011;9558;50.178;8.370;2023-11-21T08:59:36;5.57;;;2.80;;
18857;SDS011;9558;50.178;8.370;2023-11-21T09:05:13;15.57;;;2.70;;
18857;SDS011;9558;50.178;8.370;2023-11-21T09:08:01;3.58;;;2.50;;
18857;SDS011;9558;50.178;8.370;2023-11-21T09:10:47;4.60;;;2.45;;
18857;SDS011;9558;50.178;8.370;2023-11-21T09:13:34;5.75;;;2.42;;
18857;SDS011;9558;50.178;8.370;2023-11-21T09:16:21;3.28;;;2.15;;
18857;SDS011;9558;50.178;8.370;2023-11-21T09:19:08;8.85;;;2.83;;
18857;SDS011;9558;50.178;8.370;2023-11-21T09:21:57;5.43;;;2.90;;
18857;SDS011;9558;50.178;8.370;2023-11-21T09:24:43;4.22;;;2.83;;
18857;SDS011;9558;50.178;8.370;2023-11-21T09:27:30;7.25;;;2.55;;
18857;SDS011;9558;50.178;8.370;2023-11-21T09:30:17;6.85;;;2.90;;
18857;SDS011;9558;50.178;8.370;2023-11-21T09:33:05;4.65;;;2.88;;
18857;SDS011;9558;50.178;8.370;2023-11-21T09:35:54;8.27;;;2.88;;
18857;SDS011;9558;50.178;8.370;2023-11-21T09:38:43;7.57;;;2.72;;
18857;SDS011;9558;50.178;8.370;2023-11-21T09:41:31;3.72;;;2.08;;
18857;SDS011;9558;50.178;8.370;2023-11-21T09:44:26;4.78;;;2.10;;
18857;SDS011;9558;50.178;8.370;2023-11-21T09:47:21;9.52;;;3.03;;
18857;SDS011;9558;50.178;8.370;2023-11-21T09:50:09;8.40;;;3.05;;
18857;SDS011;9558;50.178;8.370;2023-11-21T09:52:57;7.15;;;2.42;;
18857;SDS011;9558;50.178;8.370;2023-11-21T09:55:53;6.00;;;2.58;;
18857;SDS011;9558;50.178;8.370;2023-11-21T09:58:40;5.15;;;2.60;;
18857;SDS011;9558;50.178;8.370;2023-11-21T10:01:27;6.90;;;2.40;;
18857;SDS011;9558;50.178;8.370;2023-11-21T10:04:15;4.90;;;2.63;;
18857;SDS011;9558;50.178;8.370;2023-11-21T10:07:03;4.47;;;2.13;;
18857;SDS011;9558;50.178;8.370;2023-11-21T10:09:54;4.35;;;2.47;;
18857;SDS011;9558;50.178;8.370;2023-11-21T10:12:43;7.82;;;2.38;;
18857;SDS011;9558;50.178;8.370;2023-11-21T10:15:33;8.80;;;2.70;;
18857;SDS011;9558;50.178;8.370;2023-11-21T10:18:21;4.47;;;2.60;;
18857;SDS011;9558;50.178;8.370;2023-11-21T10:21:10;6.75;;;2.67;;
18857;SDS011;9558;50.178;8.370;2023-11-21T10:23:57;5.47;;;2.10;;
18857;SDS011;9558;50.178;8.370;2023-11-21T10:26:44;5.32;;;2.30;;
18857;SDS011;9558;50.178;8.370;2023-11-21T10:29:35;3.00;;;2.20;;
18857;SDS011;9558;50.178;8.370;2023-11-21T10:32:22;3.95;;;2.08;;
18857;SDS011;9558;50.178;8.370;2023-11-21T10:35:16;6.35;;;2.33;;
18857;SDS011;9558;50.178;8.370;2023-11-21T10:38:03;4.95;;;2.50;;
18857;SDS011;9558;50.178;8.370;2023-11-21T10:40:50;7.88;;;2.17;;
18857;SDS011;9558;50.178;8.370;2023-11-21T10:43:38;3.95;;;2.28;;
18857;SDS011;9558;50.178;8.370;2023-11-21T10:46:26;4.63;;;2.15;;
18857;SDS011;9558;50.178;8.370;2023-11-21T10:49:16;5.30;;;1.95;;
18857;SDS011;9558;50.178;8.370;2023-11-21T10:52:04;3.83;;;2.10;;
18857;SDS011;9558;50.178;8.370;2023-11-21T10:54:51;3.75;;;2.20;;
18857;SDS011;9558;50.178;8.370;2023-11-21T10:57:37;10.15;;;1.90;;
18857;SDS011;9558;50.178;8.370;2023-11-21T11:00:24;7.50;;;1.85;;
18857;SDS011;9558;50.178;8.370;2023-11-21T11:03:14;6.93;;;2.38;;
18857;SDS011;9558;50.178;8.370;2023-11-21T11:06:02;4.85;;;1.55;;
18857;SDS011;9558;50.178;8.370;2023-11-21T11:08:49;6.50;;;2.08;;
18857;SDS011;9558;50.178;8.370;2023-11-21T11:11:37;5.10;;;2.20;;
18857;SDS011;9558;50.178;8.370;2023-11-21T11:14:26;4.18;;;2.13;;
18857;SDS011;9558;50.178;8.370;2023-11-21T11:17:13;4.05;;;2.33;;
18857;SDS011;9558;50.178;8.370;2023-11-21T11:20:01;8.35;;;2.35;;
18857;SDS011;9558;50.178;8.370;2023-11-21T11:22:57;3.92;;;1.95;;
18857;SDS011;9558;50.178;8.370;2023-11-21T11:25:58;4.88;;;2.15;;
18857;SDS011;9558;50.178;8.370;2023-11-21T11:28:57;6.47;;;2.60;;
18857;SDS011;9558;50.178;8.370;2023-11-21T11:31:55;5.90;;;2.50;;
18857;SDS011;9558;50.178;8.370;2023-11-21T11:34:52;4.15;;;2.25;;
18857;SDS011;9558;50.178;8.370;2023-11-21T11:37:46;7.65;;;2.92;;
18857;SDS011;9558;50.178;8.370;2023-11-21T11:40:39;4.10;;;2.20;;
18857;SDS011;9558;50.178;8.370;2023-11-21T11:43:27;6.03;;;2.20;;
18857;SDS011;9558;50.178;8.370;2023-11-21T11:46:14;5.88;;;2.65;;
18857;SDS011;9558;50.178;8.370;2023-11-21T11:49:02;3.40;;;2.22;;
18857;SDS011;9558;50.178;8.370;2023-11-21T11:52:03;8.15;;;3.05;;
18857;SDS011;9558;50.178;8.370;2023-11-21T11:55:25;4.00;;;2.50;;
18857;SDS011;9558;50.178;8.370;2023-11-21T11:58:16;4.35;;;2.50;;
18857;SDS011;9558;50.178;8.370;2023-11-21T12:01:06;4.55;;;2.35;;
18857;SDS011;9558;50.178;8.370;2023-11-21T12:07:09;7.60;;;3.10;;
18857;SDS011;9558;50.178;8.370;2023-11-21T12:10:01;5.57;;;2.63;;
18857;SDS011;9558;50.178;8.370;2023-11-21T12:12:50;4.38;;;2.20;;
18857;SDS011;9558;50.178;8.370;2023-11-21T12:15:38;5.55;;;2.65;;
18857;SDS011;9558;50.178;8.370;2023-11-21T12:18:26;7.10;;;2.40;;
18857;SDS011;9558;50.178;8.370;2023-11-21T12:21:13;4.38;;;2.20;;
18857;SDS011;9558;50.178;8.370;2023-11-21T12:24:02;7.57;;;2.55;;
18857;SDS011;9558;50.178;8.370;2023-11-21T12:26:49;4.82;;;2.03;;
18857;SDS011;9558;50.178;8.370;2023-11-21T12:29:38;6.28;;;2.20;;
18857;SDS011;9558;50.178;8.370;2023-11-21T12:32:27;11.30;;;2.47;;
18857;SDS011;9558;50.178;8.370;2023-11-21T12:35:14;6.32;;;2.03;;
18857;SDS011;9558;50.178;8.370;2023-11-21T12:38:03;4.28;;;2.08;;
18857;SDS011;9558;50.178;8.370;2023-11-21T12:40:51;6.88;;;2.33;;
18857;SDS011;9558;50.178;8.370;2023-11-21T12:43:40;3.53;;;1.92;;
18857;SDS011;9558;50.178;8.370;2023-11-21T12:46:28;7.97;;;2.33;;
18857;SDS011;9558;50.178;8.370;2023-11-21T12:49:17;2.08;;;1.60;;
18857;SDS011;9558;50.178;8.370;2023-11-21T12:52:04;5.90;;;2.20;;
18857;SDS011;9558;50.178;8.370;2023-11-21T12:54:52;4.70;;;2.00;;
18857;SDS011;9558;50.178;8.370;2023-11-21T12:57:40;4.07;;;2.75;;
18857;SDS011;9558;50.178;8.370;2023-11-21T13:00:29;6.22;;;3.00;;
18857;SDS011;9558;50.178;8.370;2023-11-21T13:03:20;5.00;;;1.95;;
18857;SDS011;9558;50.178;8.370;2023-11-21T13:06:11;5.68;;;2.08;;
18857;SDS011;9558;50.178;8.370;2023-11-21T13:08:58;4.47;;;2.35;;
18857;SDS011;9558;50.178;8.370;2023-11-21T13:11:45;6.80;;;2.55;;
18857;SDS011;9558;50.178;8.370;2023-11-21T13:14:31;5.03;;;2.50;;
18857;SDS011;9558;50.178;8.370;2023-11-21T13:17:18;6.97;;;2.25;;
18857;SDS011;9558;50.178;8.370;2023-11-21T13:20:09;5.80;;;2.90;;
18857;SDS011;9558;50.178;8.370;2023-11-21T13:23:06;5.07;;;2.67;;
18857;SDS011;9558;50.178;8.370;2023-11-21T13:25:54;7.18;;;2.95;;
18857;SDS011;9558;50.178;8.370;2023-11-21T13:28:41;6.65;;;2.78;;
18857;SDS011;9558;50.178;8.370;2023-11-21T13:31:31;6.35;;;2.53;;
18857;SDS011;9558;50.178;8.370;2023-11-21T13:34:21;5.47;;;2.55;;
18857;SDS011;9558;50.178;8.370;2023-11-21T13:37:14;8.63;;;3.13;;
18857;SDS011;9558;50.178;8.370;2023-11-21T13:40:00;5.95;;;3.13;;
18857;SDS011;9558;50.178;8.370;2023-11-21T13:42:55;6.82;;;3.15;;
18857;SDS011;9558;50.178;8.370;2023-11-21T13:45:45;11.80;;;3.97;;
18857;SDS011;9558;50.178;8.370;2023-11-21T13:48:32;5.88;;;3.25;;
18857;SDS011;9558;50.178;8.370;2023-11-21T13:51:27;9.18;;;3.80;;
18857;SDS011;9558;50.178;8.370;2023-11-21T13:54:24;6.75;;;3.00;;
18857;SDS011;9558;50.178;8.370;2023-11-21T13:57:11;9.68;;;3.42;;
18857;SDS011;9558;50.178;8.370;2023-11-21T13:59:58;6.47;;;3.22;;
18857;SDS011;9558;50.178;8.370;2023-11-21T14:02:46;6.97;;;2.72;;
18857;SDS011;9558;50.178;8.370;2023-11-21T14:05:34;7.43;;;2.83;;
18857;SDS011;9558;50.178;8.370;2023-11-21T14:08:21;8.23;;;2.97;;
18857;SDS011;9558;50.178;8.370;2023-11-21T14:11:15;10.38;;;3.35;;
18857;SDS011;9558;50.178;8.370;2023-11-21T14:14:03;9.98;;;3.20;;
18857;SDS011;9558;50.178;8.370;2023-11-21T14:16:51;6.75;;;2.95;;
18857;SDS011;9558;50.178;8.370;2023-11-21T14:19:38;8.25;;;2.95;;
18857;SDS011;9558;50.178;8.370;2023-11-21T14:22:28;8.05;;;2.78;;
18857;SDS011;9558;50.178;8.370;2023-11-21T14:25:15;12.10;;;3.00;;
18857;SDS011;9558;50.178;8.370;2023-11-21T14:28:04;10.07;;;3.35;;
18857;SDS011;9558;50.178;8.370;2023-11-21T14:30:51;7.45;;;3.33;;
18857;SDS011;9558;50.178;8.370;2023-11-21T14:33:38;7.75;;;2.80;;
18857;SDS011;9558;50.178;8.370;2023-11-21T14:36:25;4.75;;;2.65;;
18857;SDS011;9558;50.178;8.370;2023-11-21T14:39:12;7.00;;;2.60;;
18857;SDS011;9558;50.178;8.370;2023-11-21T14:42:08;8.43;;;2.65;;
18857;SDS011;9558;50.178;8.370;2023-11-21T14:44:56;5.15;;;2.65;;
18857;SDS011;9558;50.178;8.370;2023-11-21T14:47:48;11.32;;;3.00;;
18857;SDS011;9558;50.178;8.370;2023-11-21T14:50:42;8.00;;;3.00;;
18857;SDS011;9558;50.178;8.370;2023-11-21T14:53:57;5.70;;;2.75;;
18857;SDS011;9558;50.178;8.370;2023-11-21T14:56:51;7.30;;;3.40;;
18857;SDS011;9558;50.178;8.370;2023-11-21T14:59:43;5.18;;;2.78;;
18857;SDS011;9558;50.178;8.370;2023-11-21T15:02:33;7.60;;;3.45;;
18857;SDS011;9558;50.178;8.370;2023-11-21T15:05:34;9.68;;;3.35;;
18857;SDS011;9558;50.178;8.370;2023-11-21T15:08:21;5.05;;;2.63;;
18857;SDS011;9558;50.178;8.370;2023-11-21T15:11:12;7.22;;;3.00;;
18857;SDS011;9558;50.178;8.370;2023-11-21T15:14:01;9.75;;;3.33;;
18857;SDS011;9558;50.178;8.370;2023-11-21T15:16:52;7.03;;;3.15;;
18857;SDS011;9558;50.178;8.370;2023-11-21T15:19:46;11.45;;;3.67;;
18857;SDS011;9558;50.178;8.370;2023-11-21T15:22:33;13.65;;;3.92;;
18857;SDS011;9558;50.178;8.370;2023-11-21T15:25:19;10.00;;;3.15;;
18857;SDS011;9558;50.178;8.370;2023-11-21T15:28:07;7.60;;;3.17;;
18857;SDS011;9558;50.178;8.370;2023-11-21T15:30:53;10.32;;;2.95;;
18857;SDS011;9558;50.178;8.370;2023-11-21T15:33:41;14.43;;;3.95;;
18857;SDS011;9558;50.178;8.370;2023-11-21T15:36:29;8.88;;;2.97;;
18857;SDS011;9558;50.178;8.370;2023-11-21T15:39:16;8.70;;;2.97;;
18857;SDS011;9558;50.178;8.370;2023-11-21T15:42:03;10.00;;;3.63;;
18857;SDS011;9558;50.178;8.370;2023-11-21T15:44:52;9.95;;;3.45;;
18857;SDS011;9558;50.178;8.370;2023-11-21T15:47:39;9.13;;;3.72;;
18857;SDS011;9558;50.178;8.370;2023-11-21T15:50:26;10.05;;;4.05;;
18857;SDS011;9558;50.178;8.370;2023-11-21T15:53:14;11.50;;;4.00;;
18857;SDS011;9558;50.178;8.370;2023-11-21T15:56:03;8.13;;;3.83;;
18857;SDS011;9558;50.178;8.370;2023-11-21T15:58:50;14.25;;;4.45;;
18857;SDS011;9558;50.178;8.370;2023-11-21T16:01:37;10.55;;;5.22;;
18857;SDS011;9558;50.178;8.370;2023-11-21T16:04:28;13.50;;;3.97;;
18857;SDS011;9558;50.178;8.370;2023-11-21T16:07:15;13.70;;;5.00;;
18857;SDS011;9558;50.178;8.370;2023-11-21T16:10:03;13.43;;;5.28;;
18857;SDS011;9558;50.178;8.370;2023-11-21T16:12:52;13.90;;;4.80;;
18857;SDS011;9558;50.178;8.370;2023-11-21T16:15:39;15.88;;;4.97;;
18857;SDS011;9558;50.178;8.370;2023-11-21T16:18:25;12.52;;;4.35;;
18857;SDS011;9558;50.178;8.370;2023-11-21T16:21:12;13.18;;;4.95;;
18857;SDS011;9558;50.178;8.370;2023-11-21T16:24:00;13.15;;;4.90;;
18857;SDS011;9558;50.178;8.370;2023-11-21T16:26:48;9.32;;;4.30;;
18857;SDS011;9558;50.178;8.370;2023-11-21T16:29:35;11.30;;;4.63;;
18857;SDS011;9558;50.178;8.370;2023-11-21T16:32:23;12.63;;;5.40;;
18857;SDS011;9558;50.178;8.370;2023-11-21T16:35:10;13.07;;;5.25;;
18857;SDS011;9558;50.178;8.370;2023-11-21T16:37:58;13.98;;;4.70;;
18857;SDS011;9558;50.178;8.370;2023-11-21T16:40:45;13.85;;;5.07;;
18857;SDS011;9558;50.178;8.370;2023-11-21T16:43:33;15.52;;;5.75;;
18857;SDS011;9558;50.178;8.370;2023-11-21T16:46:20;16.52;;;5.63;;
18857;SDS011;9558;50.178;8.370;2023-11-21T16:49:07;15.75;;;6.07;;
18857;SDS011;9558;50.178;8.370;2023-11-21T16:51:53;13.63;;;5.72;;
18857;SDS011;9558;50.178;8.370;2023-11-21T16:54:40;15.30;;;6.57;;
18857;SDS011;9558;50.178;8.370;2023-11-21T16:57:27;16.85;;;6.50;;
18857;SDS011;9558;50.178;8.370;2023-11-21T17:03:03;15.15;;;5.35;;
18857;SDS011;9558;50.178;8.370;2023-11-21T17:05:51;11.50;;;5.47;;
18857;SDS011;9558;50.178;8.370;2023-11-21T17:08:38;18.13;;;6.43;;
18857;SDS011;9558;50.178;8.370;2023-11-21T17:11:25;13.00;;;4.95;;
18857;SDS011;9558;50.178;8.370;2023-11-21T17:14:12;12.13;;;5.88;;
18857;SDS011;9558;50.178;8.370;2023-11-21T17:17:01;13.07;;;6.10;;
18857;SDS011;9558;50.178;8.370;2023-11-21T17:19:47;14.35;;;6.75;;
18857;SDS011;9558;50.178;8.370;2023-11-21T17:25:21;15.80;;;5.78;;
18857;SDS011;9558;50.178;8.370;2023-11-21T17:28:07;16.52;;;6.50;;
18857;SDS011;9558;50.178;8.370;2023-11-21T17:30:54;14.43;;;5.72;;
18857;SDS011;9558;50.178;8.370;2023-11-21T17:33:42;15.68;;;5.72;;
18857;SDS011;9558;50.178;8.370;2023-11-21T17:36:30;19.38;;;6.00;;
18857;SDS011;9558;50.178;8.370;2023-11-21T17:42:03;12.20;;;5.10;;
18857;SDS011;9558;50.178;8.370;2023-11-21T17:44:51;15.13;;;6.55;;
18857;SDS011;9558;50.178;8.370;2023-11-21T17:50:26;13.80;;;5.35;;
18857;SDS011;9558;50.178;8.370;2023-11-21T17:53:13;16.10;;;5.65;;
18857;SDS011;9558;50.178;8.370;2023-11-21T17:56:00;11.43;;;5.65;;
18857;SDS011;9558;50.178;8.370;2023-11-21T17:58:47;11.82;;;5.32;;
18857;SDS011;9558;50.178;8.370;2023-11-21T18:01:39;12.57;;;5.72;;
18857;SDS011;9558;50.178;8.370;2023-11-21T18:04:27;12.05;;;5.32;;
18857;SDS011;9558;50.178;8.370;2023-11-21T18:07:16;9.98;;;4.70;;
18857;SDS011;9558;50.178;8.370;2023-11-21T18:10:03;10.38;;;4.57;;
18857;SDS011;9558;50.178;8.370;2023-11-21T18:12:51;22.63;;;5.30;;
18857;SDS011;9558;50.178;8.370;2023-11-21T18:15:39;14.68;;;4.82;;
18857;SDS011;9558;50.178;8.370;2023-11-21T18:18:26;17.48;;;6.32;;
18857;SDS011;9558;50.178;8.370;2023-11-21T18:21:12;14.00;;;5.47;;
18857;SDS011;9558;50.178;8.370;2023-11-21T18:24:01;13.43;;;6.32;;
18857;SDS011;9558;50.178;8.370;2023-11-21T18:26:48;10.38;;;4.07;;
18857;SDS011;9558;50.178;8.370;2023-11-21T18:29:35;14.40;;;4.95;;
18857;SDS011;9558;50.178;8.370;2023-11-21T18:32:22;12.50;;;3.80;;
18857;SDS011;9558;50.178;8.370;2023-11-21T18:35:09;8.45;;;3.72;;
18857;SDS011;9558;50.178;8.370;2023-11-21T18:37:56;5.28;;;2.40;;
18857;SDS011;9558;50.178;8.370;2023-11-21T18:40:44;6.35;;;3.03;;
18857;SDS011;9558;50.178;8.370;2023-11-21T18:43:31;3.45;;;2.13;;
18857;SDS011;9558;50.178;8.370;2023-11-21T18:46:18;4.15;;;1.83;;
18857;SDS011;9558;50.178;8.370;2023-11-21T18:49:05;4.20;;;2.08;;
18857;SDS011;9558;50.178;8.370;2023-11-21T18:51:52;2.88;;;1.60;;
18857;SDS011;9558;50.178;8.370;2023-11-21T18:54:40;3.38;;;1.70;;
18857;SDS011;9558;50.178;8.370;2023-11-21T18:57:29;2.60;;;1.52;;
18857;SDS011;9558;50.178;8.370;2023-11-21T19:00:16;4.90;;;1.90;;
18857;SDS011;9558;50.178;8.370;2023-11-21T19:03:04;3.35;;;1.90;;
18857;SDS011;9558;50.178;8.370;2023-11-21T19:05:50;2.95;;;1.52;;
18857;SDS011;9558;50.178;8.370;2023-11-21T19:08:37;2.50;;;1.50;;
18857;SDS011;9558;50.178;8.370;2023-11-21T19:11:27;2.92;;;1.38;;
18857;SDS011;9558;50.178;8.370;2023-11-21T19:14:15;8.35;;;1.60;;
18857;SDS011;9558;50.178;8.370;2023-11-21T19:17:01;2.97;;;1.70;;
18857;SDS011;9558;50.178;8.370;2023-11-21T19:19:48;3.10;;;2.00;;